createdAt,value
2022-10-18T17:24:07.206Z,980.47
2022-10-18T17:25:07.235Z,980.51
2022-10-18T17:26:26.646Z,980.50
2022-10-18T17:27:07.321Z,980.51
2022-10-18T17:28:07.372Z,980.52
2022-10-18T17:29:07.454Z,980.53
2022-10-18T17:30:07.469Z,980.51
2022-10-18T17:31:07.547Z,980.51
2022-10-18T17:32:07.561Z,980.53
2022-10-18T17:33:08.781Z,980.54
2022-10-18T17:34:07.665Z,980.54
2022-10-18T17:35:08.909Z,980.51
2022-10-18T17:36:07.807Z,980.53
2022-10-18T17:37:07.810Z,980.52
2022-10-18T17:38:07.863Z,980.56
2022-10-18T17:39:07.947Z,980.54
2022-10-18T17:40:07.975Z,980.55
2022-10-18T17:41:08.014Z,980.55
2022-10-18T17:42:08.060Z,980.59
2022-10-18T17:43:08.115Z,980.56
2022-10-18T17:44:08.181Z,980.59
2022-10-18T17:45:08.255Z,980.61
2022-10-18T17:46:08.259Z,980.63
2022-10-18T17:47:08.322Z,980.59
2022-10-18T17:48:08.392Z,980.67
2022-10-18T17:49:08.441Z,980.64
2022-10-18T17:50:08.467Z,980.67
2022-10-18T17:51:08.549Z,980.63
2022-10-18T17:52:08.554Z,980.72
2022-10-18T17:53:08.612Z,980.69
2022-10-18T17:54:08.694Z,980.70
2022-10-18T17:55:09.463Z,980.69
2022-10-18T17:56:08.770Z,980.71
2022-10-18T17:57:08.804Z,980.70
2022-10-18T17:58:08.863Z,980.67
2022-10-18T17:59:08.934Z,980.67
2022-10-18T18:00:08.974Z,980.68
2022-10-18T18:01:10.003Z,980.71
2022-10-18T18:02:09.083Z,980.68
2022-10-18T18:03:09.371Z,980.72
2022-10-18T18:04:09.200Z,980.70
2022-10-18T18:05:23.955Z,980.71
2022-10-18T18:06:09.256Z,980.71
2022-10-18T18:07:09.302Z,980.72
2022-10-18T18:08:09.352Z,980.72
2022-10-18T18:09:09.431Z,980.66
2022-10-18T18:10:09.450Z,980.70
2022-10-18T18:11:09.501Z,980.68
2022-10-18T18:12:09.551Z,980.68
2022-10-18T18:13:09.597Z,980.72
2022-10-18T18:14:09.699Z,980.71
2022-10-18T18:15:09.727Z,980.68
2022-10-18T18:16:09.747Z,980.72
2022-10-18T18:17:09.798Z,980.70
2022-10-18T18:18:09.852Z,980.72
2022-10-18T18:19:10.215Z,980.72
2022-10-18T18:20:09.956Z,980.73
2022-10-18T18:21:10.009Z,980.72
2022-10-18T18:22:10.050Z,980.71
2022-10-18T18:23:10.097Z,980.73
2022-10-18T18:24:10.202Z,980.72
2022-10-18T18:25:10.224Z,980.70
2022-10-18T18:26:10.256Z,980.72
2022-10-18T18:27:10.358Z,980.73
2022-10-18T18:28:11.194Z,980.74
2022-10-18T18:29:10.405Z,980.74
2022-10-18T18:30:10.447Z,980.69
2022-10-18T18:31:10.495Z,980.73
2022-10-18T18:32:10.573Z,980.70
2022-10-18T18:33:10.591Z,980.71
2022-10-18T18:34:10.650Z,980.75
2022-10-18T18:35:10.728Z,980.70
2022-10-18T18:36:10.742Z,980.69
2022-10-18T18:37:10.809Z,980.70
2022-10-18T18:38:10.846Z,980.70
2022-10-18T18:39:10.892Z,980.70
2022-10-18T18:40:10.992Z,980.73
2022-10-18T18:41:10.989Z,980.72
2022-10-18T18:42:11.040Z,980.73
2022-10-18T18:43:22.686Z,980.76
2022-10-18T18:44:11.160Z,980.72
2022-10-18T18:45:11.186Z,980.75
2022-10-18T18:46:11.234Z,980.75
2022-10-18T18:47:13.328Z,980.74
2022-10-18T18:48:12.130Z,980.75
2022-10-18T18:49:11.399Z,980.73
2022-10-18T18:50:11.442Z,980.73
2022-10-18T18:51:11.485Z,980.70
2022-10-18T18:52:11.543Z,980.70
2022-10-18T18:53:11.610Z,980.71
2022-10-18T18:54:11.644Z,980.73
2022-10-18T18:55:11.718Z,980.71
2022-10-18T18:56:12.511Z,980.71
2022-10-18T18:57:11.818Z,980.73
2022-10-18T18:58:11.840Z,980.72
2022-10-18T18:59:11.877Z,980.74
2022-10-18T19:00:12.471Z,980.74
2022-10-18T19:01:12.060Z,980.71
2022-10-18T19:02:12.075Z,980.73
2022-10-18T19:03:12.076Z,980.73
2022-10-18T19:04:12.160Z,980.73
2022-10-18T19:05:12.222Z,980.75
2022-10-18T19:06:12.233Z,980.73
2022-10-18T19:07:12.292Z,980.72
2022-10-18T19:08:12.352Z,980.71
2022-10-18T19:09:12.416Z,980.75
2022-10-18T19:10:12.468Z,980.72
2022-10-18T19:11:12.489Z,980.72
2022-10-18T19:12:13.775Z,980.75
2022-10-18T19:13:12.576Z,980.75
2022-10-18T19:14:12.671Z,980.76
2022-10-18T19:15:12.707Z,980.78
2022-10-18T19:16:12.719Z,980.79
2022-10-18T19:17:12.777Z,980.77
2022-10-18T19:18:12.821Z,980.78
2022-10-18T19:19:12.871Z,980.79
2022-10-18T19:20:12.959Z,980.79
2022-10-18T19:21:12.968Z,980.78
2022-10-18T19:22:13.047Z,980.79
2022-10-18T19:23:13.126Z,980.81
2022-10-18T19:24:13.122Z,980.85
2022-10-18T19:25:13.190Z,980.87
2022-10-18T19:26:13.217Z,980.88
2022-10-18T19:27:13.306Z,980.87
2022-10-18T19:28:13.314Z,980.89
2022-10-18T19:29:13.365Z,980.90
2022-10-18T19:30:13.436Z,980.91
2022-10-18T19:31:13.466Z,980.88
2022-10-18T19:32:13.518Z,980.86
2022-10-18T19:33:13.583Z,980.85
2022-10-18T19:34:13.612Z,980.87
2022-10-18T19:35:13.695Z,980.84
2022-10-18T19:36:13.715Z,980.80
2022-10-18T19:37:13.782Z,980.80
2022-10-18T19:38:13.837Z,980.80
2022-10-18T19:39:13.873Z,980.79
2022-10-18T19:40:13.947Z,980.76
2022-10-18T19:41:14.065Z,980.75
2022-10-18T19:42:16.069Z,980.71
2022-10-18T19:43:14.059Z,980.70
2022-10-18T19:44:14.113Z,980.68
2022-10-18T19:45:14.187Z,980.70
2022-10-18T19:46:14.218Z,980.73
2022-10-18T19:47:14.314Z,980.68
2022-10-18T19:48:14.308Z,980.67
2022-10-18T19:49:14.356Z,980.73
2022-10-18T19:50:14.446Z,980.72
2022-10-18T19:51:19.407Z,980.74
2022-10-18T19:52:14.529Z,980.76
2022-10-18T19:53:14.557Z,980.79
2022-10-18T19:54:14.657Z,980.78
2022-10-18T19:55:14.660Z,980.79
2022-10-18T19:56:14.702Z,980.82
2022-10-18T19:57:14.758Z,980.83
2022-10-18T19:58:14.804Z,980.81
2022-10-18T19:59:14.872Z,980.85
2022-10-18T20:00:17.309Z,980.84
2022-10-18T20:01:14.988Z,980.88
2022-10-18T20:02:14.998Z,980.87
2022-10-18T20:03:15.054Z,980.84
2022-10-18T20:04:16.002Z,980.84
2022-10-18T20:05:36.254Z,980.83
2022-10-18T20:06:15.202Z,980.85
2022-10-18T20:07:15.259Z,980.85
2022-10-18T20:08:15.333Z,980.81
2022-10-18T20:09:19.395Z,980.85
2022-10-18T20:10:15.402Z,980.85
2022-10-18T20:11:15.447Z,980.85
2022-10-18T20:12:15.490Z,980.86
2022-10-18T20:13:15.567Z,980.81
2022-10-18T20:14:15.598Z,980.81
2022-10-18T20:15:15.648Z,980.79
2022-10-18T20:16:15.708Z,980.80
2022-10-18T20:17:15.744Z,980.81
2022-10-18T20:18:15.816Z,980.83
2022-10-18T20:19:15.858Z,980.79
2022-10-18T20:20:16.496Z,980.81
2022-10-18T20:21:15.935Z,980.85
2022-10-18T20:22:16.011Z,980.82
2022-10-18T20:23:16.035Z,980.80
2022-10-18T20:24:16.077Z,980.81
2022-10-18T20:25:16.997Z,980.84
2022-10-18T20:26:18.141Z,980.85
2022-10-18T20:27:17.007Z,980.80
2022-10-18T20:28:16.294Z,980.82
2022-10-18T20:29:16.489Z,980.81
2022-10-18T20:30:16.997Z,980.87
2022-10-18T20:31:16.452Z,980.85
2022-10-18T20:32:16.511Z,980.84
2022-10-18T20:33:17.521Z,980.83
2022-10-18T20:34:16.598Z,980.81
2022-10-18T20:35:16.620Z,980.87
2022-10-18T20:36:16.674Z,980.86
2022-10-18T20:37:16.745Z,980.86
2022-10-18T20:38:16.816Z,980.87
2022-10-18T20:39:16.932Z,980.89
2022-10-18T20:40:16.874Z,980.86
2022-10-18T20:41:16.916Z,980.86
2022-10-18T20:42:16.964Z,980.86
2022-10-18T20:43:17.037Z,980.89
2022-10-18T20:44:17.068Z,980.88
2022-10-18T20:45:17.140Z,980.84
2022-10-18T20:46:17.170Z,980.80
2022-10-18T20:47:17.253Z,980.82
2022-10-18T20:48:17.260Z,980.82
2022-10-18T20:49:17.337Z,980.86
2022-10-18T20:50:17.364Z,980.82
2022-10-18T20:51:18.007Z,980.80
2022-10-18T20:52:17.470Z,980.82
2022-10-18T20:53:17.509Z,980.78
2022-10-18T20:54:17.593Z,980.79
2022-10-18T20:55:17.604Z,980.81
2022-10-18T20:56:17.653Z,980.79
2022-10-18T20:57:17.730Z,980.77
2022-10-18T20:58:18.508Z,980.81
2022-10-18T20:59:17.795Z,980.75
2022-10-18T21:00:17.848Z,980.78
2022-10-18T21:01:18.000Z,980.76
2022-10-18T21:02:17.953Z,980.76
2022-10-18T21:03:17.999Z,980.74
2022-10-18T21:04:18.044Z,980.77
2022-10-18T21:05:19.011Z,980.75
2022-10-18T21:06:18.178Z,980.75
2022-10-18T21:07:18.190Z,980.74
2022-10-18T21:08:18.242Z,980.75
2022-10-18T21:09:18.296Z,980.77
2022-10-18T21:10:18.349Z,980.76
2022-10-18T21:11:18.417Z,980.78
2022-10-18T21:12:18.444Z,980.75
2022-10-18T21:13:18.491Z,980.77
2022-10-18T21:14:18.545Z,980.77
2022-10-18T21:15:18.591Z,980.80
2022-10-18T21:16:39.711Z,980.79
2022-10-18T21:17:18.725Z,980.80
2022-10-18T21:18:18.750Z,980.75
2022-10-18T21:19:18.785Z,980.76
2022-10-18T21:20:18.842Z,980.75
2022-10-18T21:21:18.887Z,980.73
2022-10-18T21:22:18.972Z,980.73
2022-10-18T21:23:18.986Z,980.76
2022-10-18T21:24:19.076Z,980.68
2022-10-18T21:25:19.088Z,980.68
2022-10-18T21:26:19.142Z,980.64
2022-10-18T21:27:19.177Z,980.65
2022-10-18T21:28:19.229Z,980.59
2022-10-18T21:29:22.281Z,980.65
2022-10-18T21:30:19.333Z,980.64
2022-10-18T21:31:19.381Z,980.62
2022-10-18T21:32:19.420Z,980.67
2022-10-18T21:33:19.479Z,980.63
2022-10-18T21:34:19.563Z,980.66
2022-10-18T21:35:19.574Z,980.62
2022-10-18T21:36:19.644Z,980.63
2022-10-18T21:37:19.673Z,980.62
2022-10-18T21:38:19.751Z,980.65
2022-10-18T21:39:19.835Z,980.65
2022-10-18T21:40:20.524Z,980.58
2022-10-18T21:41:19.868Z,980.59
2022-10-18T21:42:19.938Z,980.57
2022-10-18T21:43:20.004Z,980.58
2022-10-18T21:44:20.520Z,980.56
2022-10-18T21:45:20.061Z,980.58
2022-10-18T21:46:20.112Z,980.52
2022-10-18T21:47:20.184Z,980.53
2022-10-18T21:48:20.273Z,980.51
2022-10-18T21:49:20.261Z,980.49
2022-10-18T21:50:20.326Z,980.45
2022-10-18T21:51:20.414Z,980.47
2022-10-18T21:52:20.442Z,980.45
2022-10-18T21:53:20.452Z,980.48
2022-10-18T21:54:20.505Z,980.47
2022-10-18T21:55:20.562Z,980.48
2022-10-18T21:56:20.631Z,980.45
2022-10-18T21:57:20.663Z,980.45
2022-10-18T21:58:20.699Z,980.45
2022-10-18T21:59:20.771Z,980.43
2022-10-18T22:00:20.859Z,980.40
2022-10-18T22:01:20.918Z,980.36
2022-10-18T22:02:20.896Z,980.35
2022-10-18T22:03:20.940Z,980.35
2022-10-18T22:04:21.009Z,980.34
2022-10-18T22:05:21.123Z,980.33
2022-10-18T22:06:21.139Z,980.30
2022-10-18T22:07:22.216Z,980.29
2022-10-18T22:08:21.195Z,980.30
2022-10-18T22:09:21.305Z,980.25
2022-10-18T22:10:21.289Z,980.25
2022-10-18T22:11:22.032Z,980.27
2022-10-18T22:12:21.415Z,980.23
2022-10-18T22:13:21.437Z,980.22
2022-10-18T22:14:21.491Z,980.19
2022-10-18T22:15:22.026Z,980.20
2022-10-18T22:16:21.592Z,980.21
2022-10-18T22:17:21.672Z,980.16
2022-10-18T22:18:21.677Z,980.17
2022-10-18T22:19:21.758Z,980.14
2022-10-18T22:20:21.784Z,980.11
2022-10-18T22:21:21.823Z,980.12
2022-10-18T22:22:21.921Z,980.09
2022-10-18T22:23:22.533Z,980.08
2022-10-18T22:24:22.005Z,980.08
2022-10-18T22:25:22.013Z,980.04
2022-10-18T22:26:22.064Z,980.05
2022-10-18T22:27:22.157Z,980.04
2022-10-18T22:28:23.057Z,980.03
2022-10-18T22:29:22.213Z,980.05
2022-10-18T22:30:22.260Z,980.02
2022-10-18T22:31:22.343Z,980.04
2022-10-18T22:32:22.369Z,980.01
2022-10-18T22:33:22.412Z,980.02
2022-10-18T22:34:22.495Z,980.00
2022-10-18T22:35:22.503Z,980.00
2022-10-18T22:36:22.553Z,979.97
2022-10-18T22:37:22.605Z,979.94
2022-10-18T22:38:22.651Z,979.92
2022-10-18T22:39:22.743Z,979.94
2022-10-18T22:40:22.749Z,979.90
2022-10-18T22:41:22.819Z,979.95
2022-10-18T22:42:22.880Z,979.92
2022-10-18T22:43:22.909Z,979.93
2022-10-18T22:44:22.971Z,979.92
2022-10-18T22:45:23.003Z,979.88
2022-10-18T22:46:23.048Z,979.91
2022-10-18T22:47:23.094Z,979.89
2022-10-18T22:48:24.040Z,979.90
2022-10-18T22:49:23.225Z,979.89
2022-10-18T22:50:44.276Z,979.91
2022-10-18T22:51:23.333Z,979.88
2022-10-18T22:52:24.037Z,979.89
2022-10-18T22:53:23.380Z,979.88
2022-10-18T22:54:23.462Z,979.92
2022-10-18T22:55:23.477Z,979.91
2022-10-18T22:56:23.548Z,979.89
2022-10-18T22:57:23.618Z,979.87
2022-10-18T22:58:23.624Z,979.85
2022-10-18T22:59:23.674Z,979.86
2022-10-18T23:00:23.783Z,979.86
2022-10-18T23:01:23.818Z,979.87
2022-10-18T23:02:23.817Z,979.84
2022-10-18T23:03:23.874Z,979.87
2022-10-18T23:04:24.546Z,979.83
2022-10-18T23:05:23.963Z,979.83
2022-10-18T23:06:24.037Z,979.84
2022-10-18T23:07:24.062Z,979.82
2022-10-18T23:08:24.117Z,979.87
2022-10-18T23:09:24.156Z,979.84
2022-10-18T23:10:25.043Z,979.82
2022-10-18T23:11:24.292Z,979.81
2022-10-18T23:12:24.303Z,979.86
2022-10-18T23:13:24.363Z,979.85
2022-10-18T23:14:24.402Z,979.79
2022-10-18T23:15:25.045Z,979.79
2022-10-18T23:16:24.537Z,979.83
2022-10-18T23:17:24.549Z,979.80
2022-10-18T23:18:24.592Z,979.81
2022-10-18T23:19:24.658Z,979.81
2022-10-18T23:20:24.717Z,979.84
2022-10-18T23:21:24.736Z,979.85
2022-10-18T23:22:24.814Z,979.86
2022-10-18T23:23:24.836Z,979.88
2022-10-18T23:24:24.881Z,979.83
2022-10-18T23:25:25.554Z,979.84
2022-10-18T23:26:25.549Z,979.83
2022-10-18T23:27:25.081Z,979.85
2022-10-18T23:28:25.195Z,979.85
2022-10-18T23:29:25.163Z,979.86
2022-10-18T23:30:26.052Z,979.84
2022-10-18T23:31:26.052Z,979.83
2022-10-18T23:32:25.272Z,979.84
2022-10-18T23:33:25.322Z,979.83
2022-10-18T23:34:25.413Z,979.84
2022-10-18T23:35:25.412Z,979.81
2022-10-18T23:36:25.463Z,979.84
2022-10-18T23:37:26.055Z,979.87
2022-10-18T23:38:25.569Z,979.88
2022-10-18T23:39:25.638Z,979.86
2022-10-18T23:40:25.694Z,979.83
2022-10-18T23:41:25.702Z,979.88
2022-10-18T23:42:26.554Z,979.82
2022-10-18T23:43:25.799Z,979.86
2022-10-18T23:44:25.893Z,979.82
2022-10-18T23:45:26.561Z,979.84
2022-10-18T23:46:25.959Z,979.81
2022-10-18T23:47:25.993Z,979.83
2022-10-18T23:48:26.044Z,979.80
2022-10-18T23:49:26.119Z,979.84
2022-10-18T23:50:27.059Z,979.83
2022-10-18T23:51:26.219Z,979.82
2022-10-18T23:52:26.238Z,979.82
2022-10-18T23:53:27.053Z,979.81
2022-10-18T23:54:26.336Z,979.78
2022-10-18T23:55:27.051Z,979.78
2022-10-18T23:56:26.465Z,979.81
2022-10-18T23:57:26.492Z,979.84
2022-10-18T23:58:27.068Z,979.81
2022-10-18T23:59:26.579Z,979.80
